Time;durP1;ratioP1;P1;durP2;ratioP2;P2;SDS_P1;SDS_P2;PMS_P1;PMS_P2;Temp;Humidity;BMP_temperature;BMP_pressure;BME280_temperature;BME280_humidity;BME280_pressure;Samples;Min_cycle;Max_cycle;Signal;HPM_P1;HPM_P2
2021/09/24 00:01:42;;;;;;;11.05;4.38;;;;;;;10.08;100.00;99252.41;5051913;28;20044;-81
2021/09/24 00:04:12;;;;;;;7.38;3.90;;;;;;;10.02;100.00;99274.03;5050856;28;20110;-80
2021/09/24 00:06:39;;;;;;;8.98;4.20;;;;;;;9.99;100.00;99275.22;5051865;28;20466;-80
2021/09/24 00:09:06;;;;;;;6.75;4.07;;;;;;;10.01;100.00;99270.47;5052161;28;20432;-80
2021/09/24 00:11:33;;;;;;;5.88;3.90;;;;;;;10.08;100.00;99270.59;5051470;28;20049;-80
2021/09/24 00:14:00;;;;;;;5.47;3.58;;;;;;;9.94;100.00;99242.34;5051638;28;20049;-80
2021/09/24 00:16:27;;;;;;;6.40;4.20;;;;;;;10.00;100.00;99246.22;5055419;28;20060;-80
2021/09/24 00:18:54;;;;;;;9.35;3.88;;;;;;;10.12;100.00;99268.34;5056342;28;20041;-80
2021/09/24 00:21:22;;;;;;;6.28;3.78;;;;;;;10.06;100.00;99259.06;5052253;28;20049;-80
2021/09/24 00:23:49;;;;;;;6.82;3.97;;;;;;;9.88;100.00;99254.75;5055484;28;20053;-80
2021/09/24 00:26:17;;;;;;;5.85;3.88;;;;;;;9.93;100.00;99270.50;5055155;28;20083;-80
2021/09/24 00:28:44;;;;;;;6.60;4.57;;;;;;;9.94;100.00;99277.66;5055475;28;20049;-80
2021/09/24 00:31:11;;;;;;;7.18;4.55;;;;;;;9.73;100.00;99253.81;5055686;28;20049;-80
2021/09/24 00:33:37;;;;;;;6.72;4.03;;;;;;;9.81;100.00;99250.22;5055010;28;20073;-80
2021/09/24 00:36:06;;;;;;;7.28;4.28;;;;;;;9.80;100.00;99264.81;5055081;28;20447;-81
2021/09/24 00:38:38;;;;;;;5.13;3.80;;;;;;;9.77;100.00;99257.03;5055285;28;20052;-81
2021/09/24 00:41:05;;;;;;;5.97;4.30;;;;;;;9.67;100.00;99257.25;5055377;28;20075;-80
2021/09/24 00:43:31;;;;;;;12.45;4.57;;;;;;;9.61;100.00;99264.22;5054444;28;20045;-80
2021/09/24 00:46:01;;;;;;;10.60;4.07;;;;;;;9.67;100.00;99271.66;5055210;28;20053;-80
2021/09/24 00:48:28;;;;;;;5.97;4.18;;;;;;;9.60;100.00;99259.81;5055098;28;20298;-80
2021/09/24 00:50:55;;;;;;;10.13;4.32;;;;;;;9.63;100.00;99247.75;5055304;28;20056;-80
2021/09/24 00:53:23;;;;;;;7.82;3.88;;;;;;;9.64;100.00;99269.28;5054904;28;20048;-80
2021/09/24 00:55:51;;;;;;;9.05;5.22;;;;;;;9.56;100.00;99262.03;5055158;28;20103;-80
2021/09/24 00:58:18;;;;;;;7.05;4.60;;;;;;;9.54;100.00;99252.38;5054570;28;20067;-80
2021/09/24 01:00:45;;;;;;;8.20;4.80;;;;;;;9.61;100.00;99261.50;5055108;28;20114;-80
2021/09/24 01:03:12;;;;;;;4.78;3.67;;;;;;;9.73;100.00;99276.38;5054863;28;20053;-80
2021/09/24 01:05:39;;;;;;;6.18;4.35;;;;;;;9.58;100.00;99261.88;5054324;28;20049;-80
2021/09/24 01:08:06;;;;;;;8.15;5.32;;;;;;;9.57;100.00;99280.03;5054864;28;20059;-80
2021/09/24 01:10:33;;;;;;;11.57;4.50;;;;;;;9.55;100.00;99257.63;5054418;28;20523;-80
2021/09/24 01:13:01;;;;;;;8.10;4.07;;;;;;;9.55;100.00;99267.66;5054831;28;20061;-79
2021/09/24 01:15:28;;;;;;;5.95;3.90;;;;;;;9.70;100.00;99273.19;5054269;28;20324;-80
2021/09/24 01:17:55;;;;;;;7.75;4.78;;;;;;;9.57;100.00;99243.88;5054690;28;20049;-80
2021/09/24 01:20:22;;;;;;;6.82;3.97;;;;;;;9.53;100.00;99248.81;5054824;28;20053;-80
2021/09/24 01:22:53;;;;;;;10.40;4.22;;;;;;;9.64;100.00;99269.28;5054444;28;20493;-80
2021/09/24 01:25:22;;;;;;;6.78;4.57;;;;;;;9.44;100.00;99254.44;5054239;28;20116;-80
2021/09/24 01:27:49;;;;;;;10.23;4.40;;;;;;;9.49;100.00;99257.50;5053714;28;20056;-80
2021/09/24 01:30:16;;;;;;;7.53;4.97;;;;;;;9.28;100.00;99249.94;5054026;28;20052;-80
2021/09/24 01:32:44;;;;;;;9.80;4.40;;;;;;;9.41;100.00;99244.81;5054393;28;20052;-80
2021/09/24 01:35:12;;;;;;;8.20;5.05;;;;;;;9.49;100.00;99260.22;5054070;28;20064;-80
2021/09/24 01:37:39;;;;;;;5.72;3.83;;;;;;;9.43;100.00;99255.50;5054017;28;20056;-79
2021/09/24 01:40:11;;;;;;;9.48;3.88;;;;;;;9.34;100.00;99241.09;5054086;28;20091;-79
2021/09/24 01:42:38;;;;;;;7.90;4.50;;;;;;;9.56;100.00;99253.91;5054322;28;20045;-80
2021/09/24 01:45:06;;;;;;;9.43;4.63;;;;;;;9.57;100.00;99260.16;5053944;28;20044;-80
2021/09/24 01:47:33;;;;;;;6.78;4.40;;;;;;;9.40;100.00;99243.09;5053433;28;20040;-79
2021/09/24 01:50:00;;;;;;;6.65;4.30;;;;;;;9.27;100.00;99231.97;5054102;28;20099;-79
2021/09/24 01:52:28;;;;;;;6.57;4.80;;;;;;;9.32;100.00;99253.97;5054368;28;20056;-80
2021/09/24 01:54:55;;;;;;;6.72;4.47;;;;;;;9.24;100.00;99233.16;5053504;28;20132;-80
2021/09/24 01:57:24;;;;;;;5.78;4.43;;;;;;;9.24;100.00;99229.59;5054261;28;20080;-80
2021/09/24 01:59:50;;;;;;;6.22;4.47;;;;;;;9.27;100.00;99242.81;5054163;28;20053;-80
2021/09/24 02:02:18;;;;;;;6.15;4.45;;;;;;;9.26;100.00;99247.41;5053811;28;20501;-80
2021/09/24 02:04:44;;;;;;;6.93;4.32;;;;;;;9.33;100.00;99244.81;5052733;28;20041;-79
2021/09/24 02:07:11;;;;;;;6.43;4.15;;;;;;;9.34;100.00;99236.50;5053681;28;20394;-80
2021/09/24 02:09:38;;;;;;;6.93;4.80;;;;;;;9.36;100.00;99244.47;5053893;28;20055;-79
2021/09/24 02:12:06;;;;;;;8.05;4.40;;;;;;;9.27;100.00;99226.53;5053266;28;20045;-79
2021/09/24 02:14:34;;;;;;;10.10;5.13;;;;;;;9.18;100.00;99233.84;5053459;28;20409;-79
2021/09/24 02:17:01;;;;;;;8.98;4.40;;;;;;;9.28;100.00;99233.66;5053345;28;20064;-79
2021/09/24 02:19:28;;;;;;;12.93;5.10;;;;;;;9.29;100.00;99236.19;5053249;28;20045;-79
2021/09/24 02:21:56;;;;;;;7.55;5.22;;;;;;;9.33;100.00;99232.13;5053657;28;20107;-80
2021/09/24 02:24:23;;;;;;;8.13;4.68;;;;;;;9.33;100.00;99242.97;5052913;28;20044;-80
2021/09/24 02:26:50;;;;;;;7.22;4.32;;;;;;;9.24;100.00;99237.75;5053539;28;20147;-79
2021/09/24 02:29:16;;;;;;;7.75;4.65;;;;;;;9.12;100.00;99227.28;5053172;28;20053;-79
2021/09/24 02:31:45;;;;;;;4.95;4.13;;;;;;;9.11;100.00;99250.00;5053528;28;20095;-79
2021/09/24 02:34:12;;;;;;;5.60;3.90;;;;;;;9.13;100.00;99238.97;5053051;28;20086;-80
2021/09/24 02:36:39;;;;;;;8.38;4.53;;;;;;;9.02;100.00;99227.47;5051957;28;20049;-80
2021/09/24 02:39:07;;;;;;;5.45;4.03;;;;;;;9.18;100.00;99232.00;5052930;28;20072;-79
2021/09/24 02:41:34;;;;;;;5.57;4.38;;;;;;;9.18;100.00;99237.44;5053020;28;20080;-80
2021/09/24 02:44:01;;;;;;;9.07;4.65;;;;;;;9.19;100.00;99238.25;5052845;28;20045;-79
2021/09/24 02:46:28;;;;;;;8.02;4.60;;;;;;;9.10;100.00;99239.31;5052738;28;20045;-79
2021/09/24 02:48:56;;;;;;;6.53;4.28;;;;;;;9.17;100.00;99246.56;5052935;28;20131;-80
2021/09/24 02:51:23;;;;;;;6.32;4.32;;;;;;;8.96;100.00;99243.59;5052788;28;20048;-79
2021/09/24 02:53:50;;;;;;;5.30;3.80;;;;;;;8.76;100.00;99230.41;5052232;28;20417;-79
2021/09/24 02:56:17;;;;;;;6.93;3.85;;;;;;;8.76;100.00;99238.53;5052247;28;20045;-80
2021/09/24 02:58:44;;;;;;;6.97;4.38;;;;;;;8.82;100.00;99226.13;5052835;28;20053;-80
2021/09/24 03:01:11;;;;;;;7.07;4.50;;;;;;;8.83;100.00;99214.28;5052471;28;20499;-79
2021/09/24 03:03:37;;;;;;;9.98;5.68;;;;;;;8.96;100.00;99249.00;5052820;28;20303;-81
2021/09/24 03:06:06;;;;;;;9.50;4.68;;;;;;;8.85;100.00;99240.22;5052292;28;20040;-80
2021/09/24 03:08:32;;;;;;;7.57;5.63;;;;;;;8.92;100.00;99234.94;5052505;28;20045;-80
2021/09/24 03:10:59;;;;;;;9.10;4.75;;;;;;;8.82;100.00;99226.13;5051514;28;20049;-80
2021/09/24 03:13:26;;;;;;;8.38;4.47;;;;;;;8.90;100.00;99236.97;5052296;28;20056;-80
2021/09/24 03:15:54;;;;;;;8.15;5.07;;;;;;;8.90;100.00;99228.84;5052718;28;20630;-80
2021/09/24 03:18:21;;;;;;;6.57;4.28;;;;;;;8.95;100.00;99221.03;5052584;28;20479;-80
2021/09/24 03:20:48;;;;;;;6.70;4.30;;;;;;;8.85;100.00;99223.94;5052429;28;20049;-80
2021/09/24 03:23:16;;;;;;;9.52;5.57;;;;;;;8.82;100.00;99237.84;5051861;28;20045;-80
2021/09/24 03:25:43;;;;;;;8.60;5.32;;;;;;;8.66;100.00;99217.00;5051463;28;20114;-80
2021/09/24 03:28:11;;;;;;;6.93;4.53;;;;;;;8.78;100.00;99217.50;5052522;28;20053;-80
2021/09/24 03:30:38;;;;;;;9.52;4.68;;;;;;;8.82;100.00;99237.84;5052048;28;20045;-80
2021/09/24 03:33:05;;;;;;;8.55;5.20;;;;;;;8.73;100.00;99210.91;5052242;28;20080;-80
2021/09/24 03:35:32;;;;;;;6.75;4.43;;;;;;;8.65;100.00;99223.44;5051538;28;20067;-80
2021/09/24 03:37:59;;;;;;;7.90;4.90;;;;;;;8.64;100.00;99207.34;5052138;28;20045;-80
2021/09/24 03:40:28;;;;;;;7.60;4.88;;;;;;;8.59;100.00;99215.16;5052134;28;20091;-80
2021/09/24 03:42:55;;;;;;;8.30;4.57;;;;;;;8.64;100.00;99229.91;5052190;28;20102;-80
2021/09/24 03:45:21;;;;;;;7.10;5.13;;;;;;;8.73;100.00;99221.75;5049985;28;20106;-79
2021/09/24 03:47:48;;;;;;;5.97;3.80;;;;;;;8.68;100.00;99233.94;5052019;28;20119;-80
2021/09/24 03:50:15;;;;;;;6.28;4.30;;;;;;;8.62;100.00;99206.69;5051947;28;20041;-80
2021/09/24 03:52:42;;;;;;;7.95;4.85;;;;;;;8.47;100.00;99214.66;5051700;28;20412;-80
2021/09/24 03:55:09;;;;;;;6.43;4.07;;;;;;;8.62;100.00;99228.38;5051798;28;20053;-80
2021/09/24 03:57:37;;;;;;;5.55;3.90;;;;;;;8.37;100.00;99228.38;5051705;28;20048;-80
2021/09/24 04:00:05;;;;;;;6.68;4.15;;;;;;;8.46;100.00;99232.78;5051893;28;20048;-80
2021/09/24 04:02:32;;;;;;;5.63;3.92;;;;;;;8.29;100.00;99222.94;5051369;28;20427;-81
2021/09/24 04:04:59;;;;;;;6.32;3.88;;;;;;;8.35;100.00;99230.38;5051447;28;20048;-80
2021/09/24 04:07:26;;;;;;;6.22;4.07;;;;;;;8.44;100.00;99223.97;5051634;28;20052;-80
2021/09/24 04:09:53;;;;;;;8.02;4.75;;;;;;;8.41;100.00;99234.28;5051877;28;20049;-81
2021/09/24 04:12:19;;;;;;;7.85;3.95;;;;;;;8.32;100.00;99236.13;5051999;28;20053;-80
2021/09/24 04:14:48;;;;;;;6.68;4.53;;;;;;;8.23;100.00;99229.03;5051190;28;20110;-80
2021/09/24 04:17:14;;;;;;;8.07;4.32;;;;;;;8.24;100.00;99225.31;5051978;28;20102;-80
2021/09/24 04:19:41;;;;;;;5.75;4.03;;;;;;;8.27;100.00;99246.63;5050994;28;20051;-80
2021/09/24 04:22:08;;;;;;;5.78;4.13;;;;;;;8.17;100.00;99244.06;5051994;28;20110;-80
2021/09/24 04:24:35;;;;;;;7.15;4.07;;;;;;;8.18;100.00;99232.22;5050972;28;20477;-80
2021/09/24 04:27:02;;;;;;;7.55;5.30;;;;;;;8.32;100.00;99237.00;5051637;28;20492;-80
2021/09/24 04:29:29;;;;;;;11.05;5.43;;;;;;;8.23;100.00;99227.16;5051372;28;20044;-79
2021/09/24 04:31:57;;;;;;;7.22;5.25;;;;;;;8.22;100.00;99222.78;5051736;28;20090;-79
2021/09/24 04:34:23;;;;;;;7.88;5.30;;;;;;;8.25;100.00;99229.69;5051244;28;20044;-80
2021/09/24 04:36:50;;;;;;;7.78;4.45;;;;;;;8.27;100.00;99235.81;5052495;28;20060;-80
2021/09/24 04:39:17;;;;;;;7.32;4.78;;;;;;;8.22;100.00;99235.44;5051959;28;20515;-81
2021/09/24 04:41:44;;;;;;;10.00;4.70;;;;;;;8.24;100.00;99239.69;5031506;28;20049;-80
2021/09/24 04:44:11;;;;;;;7.07;4.60;;;;;;;8.23;100.00;99234.44;5031806;28;20505;-80
2021/09/24 04:46:38;;;;;;;9.00;5.18;;;;;;;8.23;100.00;99248.81;5050404;28;20045;-80
2021/09/24 04:49:06;;;;;;;7.43;4.10;;;;;;;8.18;100.00;99240.34;5051545;28;20468;-80
2021/09/24 04:51:33;;;;;;;7.72;4.80;;;;;;;8.13;100.00;99230.03;5051174;28;20065;-80
2021/09/24 04:53:59;;;;;;;11.57;4.88;;;;;;;8.24;100.00;99228.03;5051599;28;20381;-80
2021/09/24 04:56:26;;;;;;;6.07;4.25;;;;;;;8.23;100.00;99237.97;5050555;28;20396;-80
2021/09/24 04:58:53;;;;;;;10.43;5.25;;;;;;;8.38;100.00;99254.41;5051167;28;20056;-80
2021/09/24 05:01:19;;;;;;;8.63;4.70;;;;;;;8.19;100.00;99230.38;5051673;28;20095;-80
2021/09/24 05:03:46;;;;;;;8.20;4.65;;;;;;;8.14;100.00;99253.41;5055193;28;20052;-81
2021/09/24 05:06:14;;;;;;;6.78;4.80;;;;;;;8.20;100.00;99259.97;5054650;28;20049;-80
2021/09/24 05:08:41;;;;;;;7.70;5.25;;;;;;;8.06;100.00;99247.13;5054458;28;20681;-80
2021/09/24 05:11:10;;;;;;;6.60;4.40;;;;;;;8.02;100.00;99243.03;5055161;28;20049;-80
2021/09/24 05:13:36;;;;;;;7.40;4.53;;;;;;;8.05;100.00;99248.97;5054883;28;20107;-80
2021/09/24 05:16:03;;;;;;;7.95;5.05;;;;;;;8.05;100.00;99251.66;5054129;28;20455;-80
2021/09/24 05:18:30;;;;;;;8.65;5.07;;;;;;;8.10;100.00;99246.63;5054496;28;20056;-80
2021/09/24 05:20:57;;;;;;;7.43;4.72;;;;;;;8.15;100.00;99248.81;5054697;28;20459;-80
2021/09/24 05:23:25;;;;;;;10.07;4.82;;;;;;;8.30;100.00;99254.44;5054599;28;20056;-80
2021/09/24 05:25:52;;;;;;;7.63;4.43;;;;;;;8.23;100.00;99250.69;5053818;28;20057;-81
2021/09/24 05:28:19;;;;;;;7.07;5.13;;;;;;;8.27;100.00;99252.06;5054579;28;20047;-80
2021/09/24 05:30:45;;;;;;;8.73;5.10;;;;;;;8.34;100.00;99258.50;5054702;28;20052;-80
2021/09/24 05:33:12;;;;;;;8.15;5.30;;;;;;;8.27;100.00;99252.88;5054056;28;20052;-80
2021/09/24 05:35:39;;;;;;;8.52;5.13;;;;;;;8.18;100.00;99247.66;5053515;28;20056;-80
2021/09/24 05:38:06;;;;;;;12.27;5.30;;;;;;;8.24;100.00;99249.69;5054432;28;20110;-80
2021/09/24 05:40:34;;;;;;;7.80;5.13;;;;;;;8.30;100.00;99244.44;5054730;28;20049;-80
2021/09/24 05:43:01;;;;;;;5.90;4.38;;;;;;;8.27;100.00;99252.88;5054114;28;20103;-81
2021/09/24 05:45:27;;;;;;;7.68;5.13;;;;;;;8.33;100.00;99251.38;5053937;28;20041;-80
2021/09/24 05:47:54;;;;;;;8.05;5.65;;;;;;;8.37;100.00;99244.63;5053796;28;20053;-80
2021/09/24 05:50:21;;;;;;;12.55;6.10;;;;;;;8.58;100.00;99259.53;5053471;28;20420;-80
2021/09/24 05:52:50;;;;;;;7.80;5.30;;;;;;;8.56;100.00;99250.75;5054142;28;20071;-80
2021/09/24 05:55:19;;;;;;;14.77;6.47;;;;;;;8.78;100.00;99260.06;5054039;28;20111;-80
2021/09/24 05:57:48;;;;;;;12.67;6.20;;;;;;;8.83;100.00;99236.81;5054535;28;20041;-80
2021/09/24 06:00:19;;;;;;;9.23;5.85;;;;;;;8.94;100.00;99251.03;5053688;28;20048;-80
2021/09/24 06:02:47;;;;;;;11.75;6.78;;;;;;;8.97;100.00;99239.84;5053974;28;20124;-80
2021/09/24 06:05:14;;;;;;;13.18;6.57;;;;;;;9.19;100.00;99260.81;5052870;28;20431;-80
2021/09/24 06:07:43;;;;;;;10.20;6.50;;;;;;;9.30;100.00;99259.56;5053709;28;20463;-80
2021/09/24 06:10:11;;;;;;;11.20;6.15;;;;;;;9.26;100.00;99262.81;5053542;28;20049;-80
2021/09/24 06:12:38;;;;;;;9.02;5.95;;;;;;;9.28;100.00;99275.19;5053840;28;20075;-80
2021/09/24 06:15:07;;;;;;;8.32;5.55;;;;;;;9.15;100.00;99283.88;5053305;28;20115;-80
2021/09/24 06:17:34;;;;;;;7.78;5.38;;;;;;;9.08;100.00;99276.59;5053641;28;20100;-80
2021/09/24 06:20:02;;;;;;;8.85;5.20;;;;;;;9.25;100.00;99293.69;5053747;28;20292;-80
2021/09/24 06:22:30;;;;;;;8.23;5.28;;;;;;;9.21;100.00;99277.78;5052985;28;20496;-80
2021/09/24 06:24:56;;;;;;;8.35;5.57;;;;;;;9.40;100.00;99281.09;5053205;28;20041;-80
2021/09/24 06:27:23;;;;;;;10.93;5.65;;;;;;;9.51;100.00;99293.44;5052953;28;20090;-80
2021/09/24 06:29:54;;;;;;;9.63;5.95;;;;;;;9.56;100.00;99293.78;5053330;28;20049;-80
2021/09/24 06:32:22;;;;;;;10.18;5.93;;;;;;;9.60;100.00;99302.41;5051518;28;20057;-81
2021/09/24 06:34:49;;;;;;;9.48;6.32;;;;;;;9.59;100.00;99288.00;5053008;28;20045;-81
2021/09/24 06:37:17;;;;;;;14.10;6.55;;;;;;;9.66;100.00;99288.97;5052466;28;20053;-81
2021/09/24 06:39:44;;;;;;;11.32;6.93;;;;;;;9.76;100.00;99291.47;5053230;28;20049;-81
2021/09/24 06:42:12;;;;;;;11.45;6.15;;;;;;;9.83;100.00;99278.91;5053250;28;20048;-80
2021/09/24 06:44:39;;;;;;;12.70;5.63;;;;;;;10.00;100.00;99276.09;5052876;28;20488;-81
2021/09/24 06:47:06;;;;;;;12.82;5.57;;;;;;;10.15;100.00;99274.28;5053165;28;20045;-81
2021/09/24 06:49:34;;;;;;;10.07;5.85;;;;;;;10.37;100.00;99275.38;5051501;28;20064;-81
2021/09/24 06:52:02;;;;;;;10.73;5.95;;;;;;;10.52;100.00;99274.56;5052978;28;20052;-81
2021/09/24 06:54:30;;;;;;;8.75;5.88;;;;;;;10.59;100.00;99278.25;5052574;28;20076;-81
2021/09/24 06:56:57;;;;;;;13.10;6.70;;;;;;;10.74;100.00;99275.59;5052933;28;20140;-81
2021/09/24 06:59:24;;;;;;;9.88;6.43;;;;;;;10.93;100.00;99294.13;5052587;28;20052;-82
2021/09/24 07:01:50;;;;;;;10.43;6.55;;;;;;;10.95;100.00;99277.63;5052545;28;20435;-81
2021/09/24 07:04:18;;;;;;;10.13;5.75;;;;;;;11.05;100.00;99282.78;5051728;28;20057;-81
2021/09/24 07:06:48;;;;;;;12.50;6.50;;;;;;;11.06;100.00;99279.88;5050827;28;20508;-81
2021/09/24 07:09:15;;;;;;;10.40;5.82;;;;;;;11.09;100.00;99275.94;5052773;28;20053;-81
2021/09/24 07:11:42;;;;;;;10.27;5.50;;;;;;;11.33;100.00;99302.03;5052701;28;20060;-81
2021/09/24 07:14:09;;;;;;;9.98;5.88;;;;;;;11.25;100.00;99285.81;5052415;28;20523;-81
2021/09/24 07:16:37;;;;;;;9.93;6.03;;;;;;;11.38;100.00;99286.03;5052185;28;20106;-81
2021/09/24 07:19:04;;;;;;;12.65;6.55;;;;;;;11.59;100.00;99279.81;5052321;28;20401;-81
2021/09/24 07:21:31;;;;;;;10.63;6.50;;;;;;;11.75;100.00;99278.75;5052249;28;20049;-81
2021/09/24 07:24:00;;;;;;;15.45;6.78;;;;;;;12.11;100.00;99299.78;5051315;28;20049;-81
2021/09/24 07:26:28;;;;;;;10.13;6.87;;;;;;;12.09;100.00;99279.19;5051964;28;20049;-81
2021/09/24 07:28:54;;;;;;;10.73;6.53;;;;;;;12.29;100.00;99293.91;5052356;28;20107;-81
2021/09/24 07:31:23;;;;;;;11.80;6.88;;;;;;;12.40;100.00;99289.81;5052438;28;20049;-81
2021/09/24 07:33:51;;;;;;;11.63;6.93;;;;;;;12.60;100.00;99309.13;5052111;28;20053;-81
2021/09/24 07:36:18;;;;;;;28.80;7.47;;;;;;;12.77;100.00;99303.38;5051525;28;20056;-81
2021/09/24 07:38:46;;;;;;;14.27;7.40;;;;;;;12.79;100.00;99280.31;5050995;28;20049;-81
2021/09/24 07:41:16;;;;;;;8.63;6.18;;;;;;;13.08;99.55;99287.50;5052159;28;20064;-81
2021/09/24 07:43:46;;;;;;;17.63;6.40;;;;;;;13.23;99.53;99289.28;5051970;28;20049;-81
2021/09/24 07:46:13;;;;;;;12.57;5.82;;;;;;;13.43;100.00;99301.22;5051947;28;20060;-81
2021/09/24 07:48:42;;;;;;;11.85;7.30;;;;;;;13.59;98.90;99296.47;5052012;28;20495;-81
2021/09/24 07:51:09;;;;;;;10.90;6.72;;;;;;;13.78;97.20;99301.19;5052153;28;20053;-81
2021/09/24 07:53:36;;;;;;;10.95;6.60;;;;;;;13.90;95.63;99300.63;5051855;28;20110;-81
2021/09/24 07:56:03;;;;;;;14.65;5.90;;;;;;;13.95;95.69;99301.69;5052137;28;20076;-81
2021/09/24 07:58:31;;;;;;;8.27;5.45;;;;;;;14.10;93.81;99295.25;5051457;28;20481;-81
2021/09/24 08:00:58;;;;;;;16.73;6.22;;;;;;;14.18;94.86;99286.84;5051677;28;20436;-81
2021/09/24 08:03:25;;;;;;;10.77;5.88;;;;;;;14.21;91.59;99299.28;5051974;28;20053;-82
2021/09/24 08:05:52;;;;;;;10.43;6.82;;;;;;;14.38;91.15;99302.47;5051582;28;20111;-82
2021/09/24 08:08:19;;;;;;;8.85;6.03;;;;;;;14.33;90.42;99287.53;5051874;28;20057;-81
2021/09/24 08:10:45;;;;;;;12.30;5.63;;;;;;;14.31;89.72;99289.63;5051553;28;20049;-81
2021/09/24 08:13:12;;;;;;;14.85;6.60;;;;;;;14.41;90.62;99293.88;5051610;28;20060;-81
2021/09/24 08:15:43;;;;;;;7.60;5.15;;;;;;;14.41;88.48;99291.97;5051478;28;20045;-82
2021/09/24 08:18:10;;;;;;;9.30;5.45;;;;;;;14.59;89.26;99301.47;5031676;28;20497;-82
2021/09/24 08:20:37;;;;;;;8.95;5.32;;;;;;;14.76;89.83;99304.69;5031819;28;20052;-81
2021/09/24 08:23:03;;;;;;;11.80;6.10;;;;;;;14.92;86.36;99297.94;5044634;28;20061;-82
2021/09/24 08:25:30;;;;;;;7.60;5.10;;;;;;;15.12;87.03;99295.22;5051614;28;20049;-82
2021/09/24 08:27:57;;;;;;;15.32;5.22;;;;;;;15.09;85.24;99306.59;5050569;28;20404;-82
2021/09/24 08:30:25;;;;;;;7.32;5.57;;;;;;;15.13;84.65;99316.06;5051609;28;20454;-82
2021/09/24 08:32:53;;;;;;;11.48;5.28;;;;;;;15.11;84.45;99308.06;5050503;28;20122;-82
2021/09/24 08:35:22;;;;;;;11.52;5.07;;;;;;;15.16;84.54;99311.03;5051400;28;20045;-82
2021/09/24 08:37:49;;;;;;;9.98;5.63;;;;;;;15.26;86.26;99310.59;5055794;28;20053;-82
2021/09/24 08:40:17;;;;;;;9.35;5.60;;;;;;;15.21;86.24;99297.53;5055096;28;20045;-81
2021/09/24 08:42:45;;;;;;;10.95;6.43;;;;;;;15.24;85.60;99320.09;5055418;28;20261;-82
2021/09/24 08:45:15;;;;;;;17.63;6.50;;;;;;;15.18;86.53;99314.38;5055176;28;20103;-82
2021/09/24 08:47:41;;;;;;;;;;;;;;;15.33;86.17;99318.81;5055712;28;20049;-81
2021/09/24 08:50:11;;;;;;;8.57;5.63;;;;;;;15.24;85.70;99309.13;5055286;28;19924;-82
2021/09/24 08:52:39;;;;;;;12.95;6.03;;;;;;;15.24;86.24;99295.44;5055122;28;20064;-82
2021/09/24 08:55:07;;;;;;;10.13;5.15;;;;;;;15.48;85.55;99313.09;5054278;28;20041;-82
2021/09/24 08:57:34;;;;;;;8.32;5.68;;;;;;;15.63;85.38;99302.75;5054918;28;20053;-82
2021/09/24 09:00:02;;;;;;;9.73;5.53;;;;;;;15.78;84.00;99296.19;5054844;28;20045;-82
2021/09/24 09:02:29;;;;;;;12.75;5.53;;;;;;;16.06;83.74;99301.34;5055069;28;20048;-81
2021/09/24 09:04:57;;;;;;;8.43;5.50;;;;;;;15.92;80.69;99289.59;5054584;28;20408;-82
2021/09/24 09:07:27;;;;;;;11.32;6.15;;;;;;;15.97;80.53;99298.00;5054572;28;20458;-82
2021/09/24 09:09:54;;;;;;;8.18;4.93;;;;;;;16.28;80.14;99299.16;5054776;28;20053;-83
2021/09/24 09:12:25;;;;;;;9.82;6.07;;;;;;;16.30;78.87;99302.50;5054968;28;20114;-83
2021/09/24 09:15:00;;;;;;;9.65;5.68;;;;;;;16.30;79.55;99293.44;5054555;28;20041;-82
2021/09/24 09:17:30;;;;;;;11.52;6.20;;;;;;;16.38;78.60;99296.78;5054752;28;20049;-83
2021/09/24 09:20:19;;;;;;;11.38;6.10;;;;;;;16.43;79.71;99285.97;5054707;28;20045;-82
2021/09/24 09:22:50;;;;;;;11.95;6.25;;;;;;;16.49;79.78;99288.91;5054237;28;20063;-82
2021/09/24 09:25:26;;;;;;;9.80;5.38;;;;;;;16.50;79.52;99301.56;5054235;28;20426;-82
2021/09/24 09:27:55;;;;;;;11.55;6.57;;;;;;;16.40;79.94;99282.84;5054330;28;20049;-82
2021/09/24 09:30:23;;;;;;;12.77;6.43;;;;;;;16.55;78.58;99291.59;5054645;28;20056;-84
2021/09/24 09:33:01;;;;;;;8.00;5.50;;;;;;;16.61;78.59;99303.63;5054395;28;20057;-82
2021/09/24 09:35:29;;;;;;;8.75;5.28;;;;;;;16.71;79.85;99283.91;5053583;28;20061;-83
2021/09/24 09:37:57;;;;;;;13.52;6.50;;;;;;;16.74;78.84;99281.56;5054759;28;20056;-82
2021/09/24 09:40:24;;;;;;;13.25;6.47;;;;;;;16.93;79.67;99301.72;5053750;28;20053;-82
2021/09/24 09:42:55;;;;;;;12.30;6.45;;;;;;;16.84;78.04;99285.72;5054397;28;20504;-82
2021/09/24 09:45:22;;;;;;;11.32;6.95;;;;;;;16.95;77.72;99296.84;5054016;28;20102;-82
2021/09/24 09:47:51;;;;;;;11.70;6.88;;;;;;;17.01;78.00;99292.34;5053389;28;20045;-82
2021/09/24 09:50:21;;;;;;;11.18;6.22;;;;;;;16.99;77.94;99275.28;5053921;28;20057;-82
2021/09/24 09:52:55;;;;;;;8.32;4.60;;;;;;;17.24;77.75;99279.94;5054312;28;20263;-82
2021/09/24 09:55:25;;;;;;;7.90;3.88;;;;;;;17.41;78.27;99288.44;5053549;28;20045;-83
2021/09/24 09:57:53;;;;;;;9.35;4.30;;;;;;;17.44;77.57;99285.22;5053625;28;20048;-82
2021/09/24 10:00:20;;;;;;;7.70;3.45;;;;;;;17.49;77.58;99283.47;5053411;28;20489;-82
2021/09/24 10:02:49;;;;;;;7.53;3.45;;;;;;;17.61;75.97;99285.47;5054200;28;20045;-82
2021/09/24 10:05:34;;;;;;;7.53;3.47;;;;;;;17.73;75.34;99280.88;5053455;28;20114;-83
2021/09/24 10:08:19;;;;;;;7.43;3.25;;;;;;;17.75;74.44;99269.66;5053999;28;20072;-82
2021/09/24 10:11:11;;;;;;;4.78;3.17;;;;;;;17.76;75.39;99266.66;5053662;28;20069;-82
2021/09/24 10:14:11;;;;;;;5.40;3.53;;;;;;;17.80;74.34;99269.81;5033892;28;20457;-82
2021/09/24 10:16:42;;;;;;;;;;;;;;;17.90;74.47;99281.16;5050489;28;20118;-82
2021/09/24 10:19:13;;;;;;;13.15;3.08;;;;;;;17.86;72.60;99263.41;5053559;28;19983;-82
2021/09/24 10:21:56;;;;;;;10.57;3.80;;;;;;;17.67;74.17;99263.41;5053287;28;20049;-80
2021/09/24 10:24:25;;;;;;;4.10;3.20;;;;;;;17.84;73.25;99268.28;5053391;28;20056;-81
2021/09/24 10:27:13;;;;;;;5.25;3.10;;;;;;;17.98;73.31;99264.31;5053504;28;20072;-82
2021/09/24 10:29:53;;;;;;;6.85;2.92;;;;;;;17.98;72.88;99263.50;5053063;28;20060;-81
2021/09/24 10:32:31;;;;;;;9.27;5.22;;;;;;;18.19;72.49;99260.25;5051913;28;20092;-81
2021/09/24 10:35:08;;;;;;;7.10;3.47;;;;;;;18.30;72.23;99249.53;5033299;28;20056;-81
2021/09/24 10:37:39;;;;;;;8.60;3.53;;;;;;;18.22;72.36;99257.03;5045348;28;20049;-81
2021/09/24 10:40:30;;;;;;;6.85;3.35;;;;;;;18.27;72.85;99250.00;5053105;28;20053;-81
2021/09/24 10:43:13;;;;;;;7.53;3.65;;;;;;;18.42;72.25;99250.41;5053153;28;20052;-81
2021/09/24 10:45:46;;;;;;;7.90;4.00;;;;;;;18.53;71.28;99246.00;5052857;28;20131;-81
2021/09/24 10:48:21;;;;;;;5.45;3.78;;;;;;;18.51;70.10;99248.16;5052916;28;20053;-81
2021/09/24 10:51:14;;;;;;;7.75;3.47;;;;;;;18.47;71.10;99252.44;5052477;28;20056;-82
2021/09/24 10:53:47;;;;;;;6.90;3.13;;;;;;;18.60;69.76;99255.00;5052911;28;20135;-82
2021/09/24 10:56:32;;;;;;;4.85;3.15;;;;;;;18.70;69.93;99237.91;5052240;28;20057;-81
2021/09/24 10:59:31;;;;;;;5.10;3.42;;;;;;;18.79;68.90;99228.22;5052129;28;20429;-82
2021/09/24 11:02:28;;;;;;;9.07;3.88;;;;;;;19.05;68.48;99228.88;5052605;28;20622;-82
2021/09/24 11:04:57;;;;;;;8.15;3.40;;;;;;;19.22;67.51;99229.81;5052309;28;20057;-81
2021/09/24 11:07:44;;;;;;;;;;;;;;;;;;;;;
2021/09/24 11:10:38;;;;;;;3.95;2.80;;;;;;;19.67;66.03;99228.34;5052412;28;20519;-82
2021/09/24 11:13:12;;;;;;;5.20;2.67;;;;;;;19.72;65.35;99234.00;5050534;28;20131;-82
2021/09/24 11:16:02;;;;;;;6.00;2.72;;;;;;;19.79;65.42;99225.59;5051945;28;20049;-82
2021/09/24 11:18:48;;;;;;;;;;;;;;;19.89;66.50;99223.06;5052710;28;20060;-82
2021/09/24 11:21:23;;;;;;;5.25;2.28;;;;;;;20.00;66.07;99223.25;5052549;28;19920;-82
2021/09/24 11:23:51;;;;;;;3.50;2.10;;;;;;;19.96;64.19;99209.97;5052525;28;20044;-82
2021/09/24 11:26:32;;;;;;;4.25;2.05;;;;;;;19.90;62.33;99216.47;5052347;28;20052;-82
2021/09/24 11:29:15;;;;;;;4.18;2.38;;;;;;;20.14;62.83;99217.22;5052187;28;20044;-81
2021/09/24 11:32:06;;;;;;;3.60;2.20;;;;;;;20.16;63.71;99226.06;5052279;28;20045;-82
2021/09/24 11:35:00;;;;;;;4.53;2.55;;;;;;;20.22;62.52;99204.06;5051338;28;20060;-82
2021/09/24 11:37:29;;;;;;;3.78;2.03;;;;;;;20.36;62.12;99210.97;5051736;28;20132;-82
2021/09/24 11:40:02;;;;;;;4.05;2.38;;;;;;;20.40;62.25;99216.81;5052094;28;20065;-82
2021/09/24 11:42:33;;;;;;;4.43;2.38;;;;;;;20.45;58.38;99194.84;5052087;28;20057;-82